Terminal Aerodrome Forecast
Issued by NWS Central Illinois

Home | Current Version | Previous Version | Text Only | Print | Product List | Glossary On
Versions: 1 2 3 4 5 6 7 8 9 10 11 12 13 14 15 16
000
FTUS43 KILX 211459 AAA
TAFPIA
TAF AMD
KPIA 211459Z 2115/2212 18011G17KT P6SM FEW050 SCT120 BKN250
     FM211800 18014G24KT P6SM SCT120 BKN250
     FM220400 17012G17KT P6SM VCSH BKN050 OVC120
     FM220800 17012G17KT 5SM -SHRA BR VCTS BKN035CB=

USA.gov is the U.S. government's official web portal to all federal, state and local government web resources and services.